createdAt,value
2023-01-29T00:02:08.779Z,-3.36
2023-01-29T00:07:11.891Z,-3.35
2023-01-29T00:12:15.027Z,-3.42
2023-01-29T00:17:18.167Z,-3.63
2023-01-29T00:22:21.245Z,-3.56
2023-01-29T00:27:24.353Z,-3.55
2023-01-29T00:32:27.402Z,-3.51
2023-01-29T00:37:30.614Z,-3.32
2023-01-29T00:42:52.166Z,-3.48
2023-01-29T00:47:55.172Z,-3.38
2023-01-29T00:58:34.536Z,-3.56
2023-01-29T01:03:42.460Z,-3.70
2023-01-29T01:09:03.791Z,-3.60
2023-01-29T01:14:08.162Z,-3.60
2023-01-29T01:19:11.612Z,-3.47
2023-01-29T01:24:15.188Z,-3.79
2023-01-29T01:29:19.633Z,-3.55
2023-01-29T01:34:28.799Z,-3.64
2023-01-29T01:39:31.909Z,-3.65
2023-01-29T01:45:05.295Z,-3.58
2023-01-29T01:50:19.379Z,-3.48
2023-01-29T01:55:28.365Z,-3.76
2023-01-29T02:00:31.381Z,-3.62
2023-01-29T02:05:56.008Z,-3.57
2023-01-29T02:10:59.262Z,-3.66
2023-01-29T02:16:02.560Z,-3.56
2023-01-29T02:21:43.088Z,-3.72
2023-01-29T02:27:08.488Z,-3.43
2023-01-29T02:32:30.000Z,-3.18
2023-01-29T02:37:40.290Z,-3.22
2023-01-29T02:43:22.930Z,-3.42
2023-01-29T02:48:29.881Z,-3.65
2023-01-29T02:53:50.824Z,-3.68
2023-01-29T02:59:07.332Z,-3.08
2023-01-29T03:04:17.417Z,-3.50
2023-01-29T03:09:30.451Z,-3.45
2023-01-29T03:14:58.387Z,-3.45
2023-01-29T03:20:18.258Z,-3.39
2023-01-29T03:25:47.792Z,-3.22
2023-01-29T03:31:14.970Z,-3.25
2023-01-29T03:37:08.043Z,-3.16
2023-01-29T03:42:23.823Z,-3.11
2023-01-29T03:47:45.599Z,-3.20
2023-01-29T03:53:22.339Z,-3.26
2023-01-29T03:58:47.359Z,-3.44
2023-01-29T04:04:02.164Z,-3.52
2023-01-29T04:09:27.500Z,-3.45
2023-01-29T04:14:33.372Z,-3.80
2023-01-29T04:19:38.319Z,-3.74
2023-01-29T04:24:43.062Z,-3.84
2023-01-29T04:29:46.645Z,-3.72
2023-01-29T04:35:30.063Z,-3.74
2023-01-29T04:40:44.494Z,-3.78
2023-01-29T04:46:24.870Z,-3.77
2023-01-29T04:51:48.824Z,-3.65
2023-01-29T04:57:03.149Z,-3.78
2023-01-29T05:02:10.374Z,-3.57
2023-01-29T05:07:15.742Z,-3.52
2023-01-29T05:12:19.409Z,-3.46
2023-01-29T05:17:22.579Z,-3.42
2023-01-29T05:22:27.017Z,-3.25
2023-01-29T05:27:53.641Z,-3.35
2023-01-29T05:32:56.657Z,-3.11
2023-01-29T05:37:59.697Z,-2.88
2023-01-29T05:43:02.772Z,-2.69
2023-01-29T05:48:06.042Z,-2.75
2023-01-29T05:53:09.817Z,-2.65
2023-01-29T05:58:13.267Z,-2.61
2023-01-29T06:03:16.439Z,-2.72
2023-01-29T06:08:19.548Z,-2.65
2023-01-29T06:13:23.702Z,-2.85
2023-01-29T06:18:27.026Z,-2.71
2023-01-29T06:23:30.433Z,-2.75
2023-01-29T06:28:33.671Z,-2.62
2023-01-29T06:33:36.658Z,-2.51
2023-01-29T06:38:39.625Z,-2.43
2023-01-29T06:43:45.008Z,-2.17
2023-01-29T06:48:48.137Z,-2.05
2023-01-29T06:53:51.244Z,-1.96
2023-01-29T06:58:55.493Z,-1.74
2023-01-29T07:03:58.505Z,-1.32
2023-01-29T07:09:01.707Z,-1.25
2023-01-29T07:14:05.043Z,-1.01
2023-01-29T07:19:08.185Z,-0.86
2023-01-29T07:24:11.416Z,-0.67
2023-01-29T07:29:14.461Z,-0.35
2023-01-29T07:34:17.531Z,-0.48
2023-01-29T07:39:20.580Z,-0.62
2023-01-29T07:44:23.710Z,-0.12
2023-01-29T07:49:26.853Z,-0.11
2023-01-29T07:54:29.894Z,-0.05
2023-01-29T07:59:33.014Z,0.21
2023-01-29T08:04:36.102Z,0.41
2023-01-29T08:09:39.209Z,0.48
2023-01-29T08:14:42.297Z,0.11
2023-01-29T08:25:08.305Z,0.53
2023-01-29T08:30:12.602Z,0.52
2023-01-29T08:35:15.660Z,0.41
2023-01-29T08:40:19.040Z,0.49
2023-01-29T08:45:22.283Z,0.45
2023-01-29T08:50:25.500Z,0.99
2023-01-29T08:55:29.100Z,1.15
2023-01-29T09:00:33.469Z,1.00
2023-01-29T09:05:40.909Z,0.79
2023-01-29T09:10:43.944Z,1.11
2023-01-29T09:15:46.971Z,1.21
2023-01-29T09:20:50.083Z,1.13
2023-01-29T09:25:53.116Z,0.93
2023-01-29T09:30:56.215Z,1.03
2023-01-29T09:35:59.340Z,1.11
2023-01-29T09:41:31.622Z,1.02
2023-01-29T09:46:41.525Z,1.31
2023-01-29T09:51:50.422Z,1.55
2023-01-29T09:56:57.404Z,1.96
2023-01-29T10:02:11.852Z,1.69
2023-01-29T10:07:35.355Z,1.85
2023-01-29T10:12:52.929Z,1.98
2023-01-29T10:18:10.830Z,1.94
2023-01-29T10:23:47.207Z,1.99
2023-01-29T10:28:55.854Z,1.83
2023-01-29T10:34:13.223Z,2.18
2023-01-29T10:39:23.186Z,2.29
2023-01-29T10:44:53.474Z,2.44
2023-01-29T10:56:23.680Z,1.62
2023-01-29T11:01:28.910Z,1.99
2023-01-29T11:06:34.536Z,1.89
2023-01-29T11:11:43.810Z,1.85
2023-01-29T11:16:49.921Z,1.89
2023-01-29T11:22:01.775Z,1.84
2023-01-29T11:27:15.755Z,1.75
2023-01-29T11:32:26.196Z,1.88
2023-01-29T11:37:40.231Z,2.00
2023-01-29T11:48:02.525Z,2.29
2023-01-29T11:53:07.323Z,2.19
2023-01-29T11:58:27.345Z,2.45
2023-01-29T12:03:41.942Z,2.46
2023-01-29T12:08:45.195Z,2.37
2023-01-29T12:13:56.019Z,2.51
2023-01-29T12:25:20.549Z,2.39
2023-01-29T12:30:45.056Z,2.38
2023-01-29T12:36:00.153Z,2.38
2023-01-29T12:41:21.991Z,2.58
2023-01-29T12:46:25.038Z,2.44
2023-01-29T12:51:38.118Z,2.37
2023-01-29T12:56:48.919Z,2.40
2023-01-29T13:01:57.083Z,2.60
2023-01-29T13:07:15.017Z,2.31
2023-01-29T13:12:21.158Z,2.05
2023-01-29T13:17:45.805Z,2.04
2023-01-29T13:22:50.830Z,1.89
2023-01-29T13:27:54.367Z,1.78
2023-01-29T13:33:10.231Z,1.65
2023-01-29T13:38:27.475Z,1.84
2023-01-29T13:43:36.992Z,1.69
2023-01-29T13:48:47.098Z,1.58
2023-01-29T13:54:04.680Z,1.68
2023-01-29T13:59:25.430Z,1.54
2023-01-29T14:04:31.563Z,1.67
2023-01-29T14:09:34.589Z,1.99
2023-01-29T14:14:49.589Z,1.57
2023-01-29T14:19:57.269Z,1.71
2023-01-29T14:25:06.335Z,1.63
2023-01-29T14:30:17.298Z,1.73
2023-01-29T14:35:30.841Z,1.80
2023-01-29T14:40:37.197Z,1.75
2023-01-29T14:45:44.948Z,1.63
2023-01-29T14:56:17.875Z,1.58
2023-01-29T15:07:12.861Z,1.39
2023-01-29T15:12:22.120Z,1.22
2023-01-29T15:17:46.052Z,0.93
2023-01-29T15:22:49.120Z,0.94
2023-01-29T15:27:53.328Z,0.95
2023-01-29T15:32:57.152Z,0.75
2023-01-29T15:38:19.727Z,0.98
2023-01-29T15:43:25.616Z,0.98
2023-01-29T15:48:36.404Z,0.76
2023-01-29T15:53:55.067Z,0.58
2023-01-29T15:59:01.358Z,0.27
2023-01-29T16:04:05.586Z,0.42
2023-01-29T16:09:10.700Z,0.17
2023-01-29T16:14:16.706Z,-0.25
2023-01-29T16:19:28.986Z,-0.01
2023-01-29T16:24:36.785Z,-0.03
2023-01-29T16:29:40.139Z,-0.13
2023-01-29T16:34:45.673Z,-0.07
2023-01-29T16:39:50.878Z,-0.30
2023-01-29T16:44:58.153Z,-0.24
2023-01-29T16:50:05.105Z,-0.44
2023-01-29T16:55:13.769Z,-0.51
2023-01-29T17:00:26.304Z,-0.61
2023-01-29T17:05:31.940Z,-0.47
2023-01-29T17:10:36.374Z,-0.57
2023-01-29T17:15:44.804Z,-0.58
2023-01-29T17:20:48.655Z,-0.67
2023-01-29T17:25:52.193Z,-0.86
2023-01-29T17:31:05.755Z,-0.82
2023-01-29T17:36:13.624Z,-0.88
2023-01-29T17:41:25.403Z,-0.92
2023-01-29T17:46:28.564Z,-1.21
2023-01-29T17:51:31.646Z,-1.23
2023-01-29T17:56:34.731Z,-1.25
2023-01-29T18:01:37.773Z,-1.42
2023-01-29T18:06:42.577Z,-1.83
2023-01-29T18:11:45.631Z,-1.61
2023-01-29T18:16:48.750Z,-1.72
2023-01-29T18:21:52.787Z,-1.51
2023-01-29T18:26:55.937Z,-1.84
2023-01-29T18:31:59.061Z,-1.83
2023-01-29T18:37:02.110Z,-1.95
2023-01-29T18:42:05.259Z,-1.87
2023-01-29T18:47:08.337Z,-1.86
2023-01-29T18:52:11.491Z,-1.86
2023-01-29T18:57:16.906Z,-1.92
2023-01-29T19:08:06.659Z,-2.44
2023-01-29T19:13:09.832Z,-2.36
2023-01-29T19:18:14.756Z,-2.39
2023-01-29T19:23:17.968Z,-2.49
2023-01-29T19:28:21.024Z,-2.57
2023-01-29T19:33:24.738Z,-2.52
2023-01-29T19:38:28.250Z,-2.43
2023-01-29T19:43:32.396Z,-2.40
2023-01-29T19:48:35.622Z,-2.14
2023-01-29T19:53:44.202Z,-2.12
2023-01-29T19:58:47.842Z,-2.16
2023-01-29T20:03:52.580Z,-2.13
2023-01-29T20:08:55.688Z,-2.14
2023-01-29T20:13:59.322Z,-2.14
2023-01-29T20:19:14.309Z,-2.24
2023-01-29T20:24:18.135Z,-2.24
2023-01-29T20:29:21.265Z,-2.17
2023-01-29T20:39:43.623Z,-2.16
2023-01-29T20:44:46.633Z,-2.34
2023-01-29T20:49:50.015Z,-2.19
2023-01-29T20:54:54.177Z,-2.35
2023-01-29T20:59:57.401Z,-2.23
2023-01-29T21:05:00.512Z,-2.24
2023-01-29T21:10:04.091Z,-2.22
2023-01-29T21:15:07.764Z,-2.17
2023-01-29T21:20:11.349Z,-2.14
2023-01-29T21:25:14.936Z,-2.33
2023-01-29T21:30:21.042Z,-2.41
2023-01-29T21:35:24.239Z,-2.39
2023-01-29T21:40:27.363Z,-2.46
2023-01-29T21:45:30.457Z,-2.67
2023-01-29T21:50:33.580Z,-2.72
2023-01-29T21:55:36.601Z,-2.61
2023-01-29T22:00:39.957Z,-2.33
2023-01-29T22:05:43.216Z,-2.43
2023-01-29T22:10:46.464Z,-2.34
2023-01-29T22:15:49.591Z,-2.50
2023-01-29T22:20:57.070Z,-2.33
2023-01-29T22:26:04.723Z,-2.58
2023-01-29T22:31:07.808Z,-2.34
2023-01-29T22:36:13.029Z,-2.30
2023-01-29T22:41:16.109Z,-2.45
2023-01-29T22:46:19.057Z,-2.62
2023-01-29T22:51:22.122Z,-2.51
2023-01-29T22:56:31.383Z,-2.54
2023-01-29T23:01:34.467Z,-2.67
2023-01-29T23:06:37.639Z,-2.59
2023-01-29T23:11:40.670Z,-2.82
2023-01-29T23:16:43.830Z,-2.79
2023-01-29T23:21:47.062Z,-3.36
2023-01-29T23:32:26.317Z,-3.31
2023-01-29T23:37:29.338Z,-3.39
2023-01-29T23:42:32.347Z,-3.30
2023-01-29T23:47:35.388Z,-3.26
2023-01-29T23:52:39.208Z,-3.29
2023-01-29T23:57:42.292Z,-3.29
